TimeEDT,TemperatureF,Dew PointF,Humidity,Sea Level PressureIn,VisibilityMPH,Wind Direction,Wind SpeedMPH,Gust SpeedMPH,PrecipitationIn,Events,Conditions,WindDirDegrees,DateUTC
12:04 AM,57.2,55.4,94,29.47,7.0,ESE,8.1,-,0.00,Rain,Light Rain,120,2012-11-01 04:04:00
12:34 AM,57.2,55.4,94,29.48,10.0,SSW,9.2,-,0.02,,Overcast,200,2012-11-01 04:34:00
12:54 AM,57.0,55.0,93,29.49,10.0,South,6.9,-,0.02,,Overcast,190,2012-11-01 04:54:00
1:13 AM,57.2,53.6,88,29.48,10.0,SSW,6.9,-,N/A,,Overcast,200,2012-11-01 05:13:00
1:54 AM,57.0,54.0,89,29.50,10.0,SSW,10.4,-,N/A,,Overcast,200,2012-11-01 05:54:00
2:26 AM,55.4,51.8,88,29.49,7.0,South,9.2,-,0.00,Rain,Light Rain,190,2012-11-01 06:26:00
2:42 AM,55.4,51.8,88,29.49,10.0,South,6.9,-,0.00,,Overcast,190,2012-11-01 06:42:00
2:54 AM,55.0,52.0,89,29.50,10.0,SSW,4.6,-,0.00,,Overcast,200,2012-11-01 06:54:00
3:09 AM,55.4,51.8,88,29.49,10.0,SW,4.6,-,N/A,,Overcast,230,2012-11-01 07:09:00
3:17 AM,53.6,51.8,94,29.49,10.0,SW,5.8,-,N/A,,Overcast,220,2012-11-01 07:17:00
3:40 AM,53.6,50.0,88,29.50,10.0,SSW,5.8,-,N/A,,Scattered Clouds,200,2012-11-01 07:40:00
3:54 AM,52.0,48.9,89,29.51,10.0,South,3.5,-,N/A,,Partly Cloudy,190,2012-11-01 07:54:00
4:54 AM,50.0,46.9,89,29.52,10.0,South,3.5,-,N/A,,Clear,190,2012-11-01 08:54:00
5:54 AM,48.0,46.0,93,29.52,10.0,South,4.6,-,N/A,,Clear,190,2012-11-01 09:54:00
6:22 AM,48.2,46.4,93,29.51,10.0,Calm,Calm,-,N/A,,Mostly Cloudy,0,2012-11-01 10:22:00
6:32 AM,48.2,46.4,93,29.51,10.0,SSE,4.6,-,N/A,,Scattered Clouds,160,2012-11-01 10:32:00
6:45 AM,48.2,46.4,93,29.51,10.0,ESE,4.6,-,N/A,,Mostly Cloudy,120,2012-11-01 10:45:00
6:52 AM,46.4,46.4,100,29.52,10.0,SE,4.6,-,N/A,,Scattered Clouds,130,2012-11-01 10:52:00
6:54 AM,46.9,46.0,97,29.53,10.0,SE,3.5,-,N/A,,Mostly Cloudy,140,2012-11-01 10:54:00
7:12 AM,46.4,44.6,93,29.53,9.0,SE,4.6,-,N/A,,Scattered Clouds,140,2012-11-01 11:12:00
7:54 AM,48.0,45.0,89,29.55,10.0,SSE,6.9,-,N/A,,Scattered Clouds,160,2012-11-01 11:54:00
8:14 AM,48.2,46.4,93,29.54,10.0,South,5.8,-,N/A,,Mostly Cloudy,170,2012-11-01 12:14:00
8:47 AM,48.2,46.4,93,29.54,10.0,SSE,4.6,-,N/A,,Overcast,160,2012-11-01 12:47:00
8:54 AM,48.9,46.0,90,29.56,10.0,SSE,5.8,-,N/A,,Overcast,150,2012-11-01 12:54:00
9:50 AM,51.8,48.2,88,29.53,10.0,SSE,6.9,-,N/A,,Mostly Cloudy,150,2012-11-01 13:50:00
9:54 AM,51.1,48.0,89,29.55,10.0,SE,6.9,-,N/A,,Mostly Cloudy,140,2012-11-01 13:54:00
10:06 AM,51.8,46.4,82,29.53,10.0,SSE,6.9,-,N/A,,Overcast,160,2012-11-01 14:06:00
10:49 AM,53.6,46.4,77,29.53,10.0,South,9.2,-,N/A,,Mostly Cloudy,170,2012-11-01 14:49:00
10:54 AM,52.0,46.0,80,29.55,10.0,South,11.5,-,N/A,,Overcast,180,2012-11-01 14:54:00
11:24 AM,53.6,44.6,72,29.53,10.0,South,13.8,-,N/A,,Overcast,180,2012-11-01 15:24:00
11:40 AM,53.6,44.6,72,29.53,10.0,South,10.4,-,N/A,,Overcast,180,2012-11-01 15:40:00
11:54 AM,53.1,44.1,71,29.53,10.0,South,12.7,17.3,N/A,,Mostly Cloudy,170,2012-11-01 15:54:00
12:21 PM,53.6,44.6,72,29.52,10.0,South,12.7,21.9,N/A,,Mostly Cloudy,190,2012-11-01 16:21:00
12:35 PM,53.6,44.6,72,29.51,10.0,South,11.5,19.6,N/A,,Mostly Cloudy,190,2012-11-01 16:35:00
12:54 PM,53.1,45.0,74,29.53,10.0,South,9.2,-,N/A,,Overcast,180,2012-11-01 16:54:00
1:24 PM,53.6,44.6,72,29.50,10.0,SSE,11.5,-,N/A,,Overcast,160,2012-11-01 17:24:00
1:54 PM,53.1,46.0,77,29.51,10.0,SSE,11.5,-,N/A,,Mostly Cloudy,160,2012-11-01 17:54:00
2:33 PM,53.6,44.6,72,29.49,10.0,South,11.5,-,N/A,,Overcast,170,2012-11-01 18:33:00
2:54 PM,53.1,45.0,74,29.50,10.0,South,6.9,-,N/A,,Overcast,170,2012-11-01 18:54:00
3:33 PM,53.6,44.6,72,29.48,10.0,South,6.9,-,N/A,,Overcast,170,2012-11-01 19:33:00
3:42 PM,53.6,44.6,72,29.48,10.0,SSE,6.9,-,N/A,,Overcast,160,2012-11-01 19:42:00
3:54 PM,53.1,45.0,74,29.50,10.0,SSE,6.9,-,N/A,,Overcast,160,2012-11-01 19:54:00
4:54 PM,51.1,46.0,83,29.50,10.0,South,3.5,-,0.00,Rain,Light Rain,190,2012-11-01 20:54:00
5:54 PM,50.0,46.9,89,29.51,7.0,SSE,4.6,-,0.02,Rain,Light Rain,160,2012-11-01 21:54:00
6:54 PM,48.9,46.9,93,29.51,7.0,Calm,Calm,-,0.03,Rain,Light Rain,0,2012-11-01 22:54:00
7:18 PM,48.2,46.4,93,29.48,10.0,Calm,Calm,-,0.01,Rain,Light Rain,0,2012-11-01 23:18:00
7:33 PM,48.2,46.4,93,29.48,8.0,Calm,Calm,-,0.01,Rain,Light Rain,0,2012-11-01 23:33:00
7:54 PM,48.9,46.9,93,29.50,4.0,Calm,Calm,-,0.02,Rain,Light Rain,0,2012-11-01 23:54:00
8:01 PM,48.2,46.4,93,29.48,3.0,Calm,Calm,-,0.00,Rain,Light Rain,0,2012-11-02 00:01:00
8:14 PM,48.2,46.4,93,29.47,4.0,Calm,Calm,-,0.01,Rain,Light Rain,0,2012-11-02 00:14:00
8:35 PM,48.2,46.4,93,29.47,2.5,Calm,Calm,-,0.01,Rain,Light Rain,0,2012-11-02 00:35:00
8:54 PM,48.9,46.9,93,29.49,2.5,Calm,Calm,-,0.02,Rain,Light Rain,0,2012-11-02 00:54:00
9:43 PM,48.2,46.4,93,29.46,1.8,Calm,Calm,-,0.03,Rain,Light Rain,0,2012-11-02 01:43:00
9:54 PM,48.9,46.9,93,29.48,1.8,Calm,Calm,-,0.04,Rain,Light Rain,0,2012-11-02 01:54:00
10:07 PM,48.2,46.4,93,29.46,2.0,Calm,Calm,-,0.02,Rain,Light Rain,0,2012-11-02 02:07:00
10:45 PM,48.2,46.4,93,29.46,3.0,West,3.5,-,0.05,Rain,Light Rain,260,2012-11-02 02:45:00
10:54 PM,48.0,46.0,93,29.48,3.0,WNW,4.6,-,0.05,Rain,Light Rain,290,2012-11-02 02:54:00
11:08 PM,46.4,46.4,100,29.46,4.0,West,3.5,-,0.01,Rain,Light Rain,280,2012-11-02 03:08:00
11:19 PM,46.4,46.4,100,29.46,4.0,WNW,4.6,-,0.01,Rain,Light Rain,290,2012-11-02 03:19:00
11:54 PM,46.9,45.0,93,29.48,4.0,West,6.9,-,0.03,Rain,Light Rain,260,2012-11-02 03:54:00